createdAt,value
2019-05-14T00:00:21.684Z,2.47
2019-05-14T00:02:52.088Z,2.17
2019-05-14T00:05:21.678Z,2.50
2019-05-14T00:07:52.286Z,2.50
2019-05-14T00:10:21.892Z,2.43
2019-05-14T00:12:52.368Z,2.27
2019-05-14T00:15:22.985Z,2.67
2019-05-14T00:17:52.454Z,2.53
2019-05-14T00:20:22.969Z,2.73
2019-05-14T00:22:53.302Z,2.50
2019-05-14T00:25:22.878Z,2.50
2019-05-14T00:27:53.564Z,2.10
2019-05-14T00:30:23.950Z,2.40
2019-05-14T00:32:54.345Z,2.60
2019-05-14T00:35:23.732Z,2.70
2019-05-14T00:37:55.346Z,3.00
2019-05-14T00:40:24.681Z,2.70
2019-05-14T00:42:56.506Z,2.47
2019-05-14T00:45:26.918Z,2.67
2019-05-14T00:47:56.316Z,2.70
2019-05-14T00:50:27.095Z,2.70
2019-05-14T00:52:56.600Z,2.33
2019-05-14T00:55:27.083Z,2.70
2019-05-14T00:57:59.247Z,2.43
2019-05-14T01:00:31.348Z,1.87
2019-05-14T01:03:02.572Z,2.70
2019-05-14T01:05:32.330Z,2.40
2019-05-14T01:08:02.979Z,2.37
2019-05-14T01:10:34.097Z,2.33
2019-05-14T01:13:04.500Z,2.17
2019-05-14T01:15:36.889Z,2.57
2019-05-14T01:18:06.295Z,2.97
2019-05-14T01:20:36.764Z,2.43
2019-05-14T01:23:06.167Z,2.60
2019-05-14T01:25:36.528Z,2.33
2019-05-14T01:28:08.749Z,2.43
2019-05-14T01:30:38.238Z,3.00
2019-05-14T01:33:08.688Z,3.00
2019-05-14T01:35:38.055Z,2.73
2019-05-14T01:38:08.455Z,2.43
2019-05-14T01:40:41.985Z,3.03
2019-05-14T01:43:15.215Z,2.90
2019-05-14T01:45:46.876Z,2.53
2019-05-14T01:48:18.611Z,2.80
2019-05-14T01:50:49.159Z,2.50
2019-05-14T01:53:21.854Z,2.40
2019-05-14T01:55:52.056Z,2.57
2019-05-14T01:58:22.163Z,2.53
2019-05-14T02:00:52.648Z,2.30
2019-05-14T02:03:22.165Z,2.50
2019-05-14T02:05:54.609Z,2.50
2019-05-14T02:08:23.344Z,2.90
2019-05-14T02:10:53.760Z,2.63
2019-05-14T02:13:23.116Z,2.50
2019-05-14T02:15:54.663Z,2.30
2019-05-14T02:18:25.297Z,2.50
2019-05-14T02:20:57.563Z,2.63
2019-05-14T02:23:27.091Z,2.97
2019-05-14T02:25:59.639Z,2.97
2019-05-14T02:28:31.651Z,2.90
2019-05-14T02:31:03.864Z,2.73
2019-05-14T02:33:33.186Z,2.40
2019-05-14T02:36:03.550Z,2.37
2019-05-14T02:38:34.440Z,3.13
2019-05-14T02:41:02.935Z,2.93
2019-05-14T02:43:31.413Z,2.90
2019-05-14T02:46:10.775Z,2.83
2019-05-14T02:48:31.610Z,2.83
2019-05-14T02:51:02.000Z,2.90
2019-05-14T02:53:31.424Z,2.60
2019-05-14T02:56:02.304Z,3.00
2019-05-14T02:58:34.178Z,2.73
2019-05-14T03:01:04.696Z,3.10
2019-05-14T03:03:35.191Z,2.80
2019-05-14T03:06:05.529Z,2.63
2019-05-14T03:08:38.843Z,2.90
2019-05-14T03:11:10.114Z,3.37
2019-05-14T03:13:43.933Z,2.97
2019-05-14T03:16:26.036Z,2.93
2019-05-14T03:18:49.906Z,2.90
2019-05-14T03:21:19.888Z,2.20
2019-05-14T03:23:49.633Z,2.67
2019-05-14T03:26:22.330Z,2.87
2019-05-14T03:28:52.929Z,2.60
2019-05-14T03:31:25.266Z,3.00
2019-05-14T03:33:55.625Z,2.40
2019-05-14T03:36:34.254Z,3.17
2019-05-14T03:39:00.296Z,2.97
2019-05-14T03:41:30.904Z,3.17
2019-05-14T03:44:01.428Z,3.07
2019-05-14T03:46:44.284Z,3.13
2019-05-14T03:49:01.626Z,2.17
2019-05-14T03:51:31.111Z,2.60
2019-05-14T03:54:06.493Z,2.40
2019-05-14T03:56:31.985Z,2.67
2019-05-14T03:59:03.124Z,2.67
2019-05-14T04:01:32.905Z,2.80
2019-05-14T04:04:03.640Z,2.87
2019-05-14T04:06:34.065Z,2.90
2019-05-14T04:09:04.928Z,3.07
2019-05-14T04:11:35.676Z,2.27
2019-05-14T04:14:05.408Z,1.93
2019-05-14T04:16:39.829Z,2.00
2019-05-14T04:19:13.784Z,2.63
2019-05-14T04:21:45.440Z,2.50
2019-05-14T04:24:19.839Z,2.60
2019-05-14T04:27:02.398Z,2.60
2019-05-14T04:29:25.640Z,2.57
2019-05-14T04:32:00.108Z,2.20
2019-05-14T04:34:30.406Z,2.53
2019-05-14T04:37:00.347Z,3.07
2019-05-14T04:39:30.868Z,3.33
2019-05-14T04:42:00.512Z,2.80
2019-05-14T04:44:32.720Z,2.60
2019-05-14T04:47:21.758Z,2.87
2019-05-14T04:49:33.452Z,2.67
2019-05-14T04:52:02.892Z,2.43
2019-05-14T04:54:34.478Z,2.73
2019-05-14T04:57:03.766Z,3.43
2019-05-14T04:59:34.161Z,2.83
2019-05-14T05:02:09.505Z,2.93
2019-05-14T05:04:41.154Z,2.50
2019-05-14T05:07:10.152Z,2.87
2019-05-14T05:09:40.206Z,2.60
2019-05-14T05:12:09.904Z,2.30
2019-05-14T05:14:40.253Z,2.63
2019-05-14T05:17:10.893Z,2.40
2019-05-14T05:19:45.172Z,2.50
2019-05-14T05:22:12.310Z,3.20
2019-05-14T05:24:41.662Z,2.17
2019-05-14T05:27:10.982Z,2.60
2019-05-14T05:29:41.535Z,2.47
2019-05-14T05:32:10.953Z,2.57
2019-05-14T05:34:42.570Z,2.50
2019-05-14T05:37:13.223Z,2.60
2019-05-14T05:39:44.931Z,3.00
2019-05-14T05:42:15.568Z,2.70
2019-05-14T05:44:48.180Z,2.25
2019-05-14T05:47:18.501Z,2.87
2019-05-14T05:49:48.767Z,2.43
2019-05-14T05:52:19.133Z,2.63
2019-05-14T05:54:49.671Z,2.93
2019-05-14T05:57:21.714Z,2.93
2019-05-14T05:59:54.863Z,2.87
2019-05-14T06:02:24.489Z,3.33
2019-05-14T06:04:54.634Z,2.73
2019-05-14T06:07:24.142Z,2.77
2019-05-14T06:09:55.984Z,2.47
2019-05-14T06:12:26.585Z,2.60
2019-05-14T06:14:57.949Z,2.60
2019-05-14T06:17:28.505Z,2.43
2019-05-14T06:19:59.104Z,2.70
2019-05-14T06:22:28.765Z,2.27
2019-05-14T06:24:59.185Z,2.40
2019-05-14T06:27:28.923Z,2.40
2019-05-14T06:29:59.347Z,1.97
2019-05-14T06:32:29.817Z,2.50
2019-05-14T06:35:00.232Z,2.40
2019-05-14T06:37:30.137Z,2.63
2019-05-14T06:40:00.835Z,2.33
2019-05-14T06:42:33.044Z,2.67
2019-05-14T06:45:02.499Z,2.80
2019-05-14T06:47:31.880Z,2.60
2019-05-14T06:50:01.246Z,2.20
2019-05-14T06:52:30.674Z,2.33
2019-05-14T06:55:01.293Z,2.10
2019-05-14T06:57:31.588Z,2.10
2019-05-14T07:00:00.953Z,1.80
2019-05-14T07:02:31.449Z,2.17
2019-05-14T07:05:00.831Z,1.57
2019-05-14T07:07:30.408Z,1.87
2019-05-14T07:10:00.993Z,2.20
2019-05-14T07:12:31.397Z,2.60
2019-05-14T07:15:02.954Z,1.90
2019-05-14T07:17:33.463Z,1.90
2019-05-14T07:20:02.930Z,2.20
2019-05-14T07:22:33.336Z,2.40
2019-05-14T07:25:02.708Z,1.90
2019-05-14T07:27:36.016Z,2.23
2019-05-14T07:30:09.028Z,2.00
2019-05-14T07:32:41.644Z,1.80
2019-05-14T07:35:12.380Z,1.90
2019-05-14T07:37:42.770Z,2.10
2019-05-14T07:40:14.642Z,2.10
2019-05-14T07:42:43.145Z,2.10
2019-05-14T07:45:12.417Z,2.13
2019-05-14T07:47:40.923Z,2.40
2019-05-14T07:50:13.017Z,1.70
2019-05-14T07:52:45.385Z,1.93
2019-05-14T07:55:18.489Z,2.10
2019-05-14T07:57:50.302Z,1.90
2019-05-14T08:00:21.642Z,1.90
2019-05-14T08:02:52.040Z,1.50
2019-05-14T08:05:22.457Z,1.50
2019-05-14T08:07:54.373Z,2.00
2019-05-14T08:10:24.825Z,1.95
2019-05-14T08:12:58.945Z,1.75
2019-05-14T08:15:28.474Z,1.60
2019-05-14T08:17:58.526Z,1.65
2019-05-14T08:20:30.002Z,1.57
2019-05-14T08:22:59.582Z,1.65
2019-05-14T08:25:30.079Z,1.82
2019-05-14T08:28:00.503Z,1.50
2019-05-14T08:30:30.907Z,1.75
2019-05-14T08:33:00.261Z,1.60
2019-05-14T08:35:34.206Z,2.30
2019-05-14T08:38:07.663Z,1.72
2019-05-14T08:40:33.061Z,2.27
2019-05-14T08:43:02.507Z,1.90
2019-05-14T08:45:32.799Z,2.00
2019-05-14T08:48:03.413Z,1.62
2019-05-14T08:50:34.072Z,1.80
2019-05-14T08:53:03.494Z,1.70
2019-05-14T08:55:32.905Z,1.92
2019-05-14T08:58:02.580Z,1.90
2019-05-14T09:00:32.935Z,1.60
2019-05-14T09:03:03.291Z,1.70
2019-05-14T09:05:33.755Z,1.40
2019-05-14T09:08:04.162Z,1.30
2019-05-14T09:10:32.990Z,1.15
2019-05-14T09:13:02.961Z,1.55
2019-05-14T09:15:32.550Z,1.27
2019-05-14T09:18:03.944Z,1.40
2019-05-14T09:20:34.823Z,1.45
2019-05-14T09:23:05.236Z,1.40
2019-05-14T09:25:45.530Z,1.80
2019-05-14T09:28:09.038Z,1.40
2019-05-14T09:30:38.542Z,1.10
2019-05-14T09:33:10.298Z,1.07
2019-05-14T09:35:40.703Z,1.00
2019-05-14T09:38:12.278Z,1.33
2019-05-14T09:40:42.664Z,1.00
2019-05-14T09:43:18.071Z,1.20
2019-05-14T09:45:48.697Z,1.10
2019-05-14T09:48:19.228Z,1.23
2019-05-14T09:50:51.398Z,1.13
2019-05-14T09:53:20.790Z,1.23
2019-05-14T09:55:51.267Z,1.30
2019-05-14T09:58:20.682Z,1.20
2019-05-14T10:00:51.236Z,1.10
2019-05-14T10:03:20.605Z,1.23
2019-05-14T10:05:50.959Z,1.10
2019-05-14T10:08:21.405Z,1.10
2019-05-14T10:10:51.815Z,1.40
2019-05-14T10:13:22.217Z,1.60
2019-05-14T10:15:51.721Z,1.20
2019-05-14T10:18:21.833Z,1.37
2019-05-14T10:20:54.583Z,1.20
2019-05-14T10:23:23.986Z,1.37
2019-05-14T10:25:53.662Z,1.53
2019-05-14T10:28:24.041Z,1.20
2019-05-14T10:30:54.541Z,1.30
2019-05-14T10:33:25.146Z,1.97
2019-05-14T10:35:54.654Z,1.00
2019-05-14T10:38:24.021Z,2.27
2019-05-14T10:40:53.448Z,1.63
2019-05-14T10:43:23.844Z,1.53
2019-05-14T10:45:53.321Z,1.43
2019-05-14T10:48:25.291Z,1.97
2019-05-14T10:51:03.199Z,2.33
2019-05-14T10:53:29.447Z,7.57
2019-05-14T10:55:59.965Z,2.30
2019-05-14T10:58:29.427Z,2.40
2019-05-14T11:01:00.599Z,1.50
2019-05-14T11:03:31.181Z,2.60
2019-05-14T11:06:00.460Z,2.40
2019-05-14T11:08:30.406Z,2.20
2019-05-14T11:11:03.573Z,2.97
2019-05-14T11:13:31.054Z,1.80
2019-05-14T11:16:00.506Z,1.37
2019-05-14T11:18:30.930Z,1.10
2019-05-14T11:21:18.752Z,1.20
2019-05-14T11:23:33.468Z,0.90
2019-05-14T11:26:02.875Z,1.10
2019-05-14T11:28:32.305Z,1.30
2019-05-14T11:31:02.610Z,1.60
2019-05-14T11:33:32.943Z,1.47
2019-05-14T11:36:02.267Z,2.50
2019-05-14T11:38:37.155Z,0.70
2019-05-14T11:41:04.977Z,1.10
2019-05-14T11:43:34.455Z,0.93
2019-05-14T11:46:05.029Z,0.87
2019-05-14T11:48:34.453Z,0.93
2019-05-14T11:51:05.031Z,0.90
2019-05-14T11:53:34.414Z,0.90
2019-05-14T11:56:04.873Z,0.90
2019-05-14T11:58:36.651Z,1.10
2019-05-14T12:01:06.118Z,0.80
2019-05-14T12:03:39.090Z,0.80
2019-05-14T12:06:09.810Z,1.00
2019-05-14T12:08:41.765Z,1.00
2019-05-14T12:11:10.025Z,1.10
2019-05-14T12:13:40.848Z,0.90
2019-05-14T12:16:13.343Z,1.00
2019-05-14T12:18:44.326Z,0.80
2019-05-14T12:21:15.316Z,0.67
2019-05-14T12:23:45.706Z,0.70
2019-05-14T12:26:19.084Z,0.87
2019-05-14T12:28:50.537Z,0.90
2019-05-14T12:31:22.795Z,0.93
2019-05-14T12:33:58.215Z,0.77
2019-05-14T12:36:29.236Z,0.80
2019-05-14T12:38:59.942Z,0.80
2019-05-14T12:41:30.932Z,0.90
2019-05-14T12:44:00.392Z,0.60
2019-05-14T12:46:30.795Z,1.00
2019-05-14T12:49:00.221Z,0.87
2019-05-14T12:51:31.985Z,0.93
2019-05-14T12:54:09.243Z,0.80
2019-05-14T12:56:39.052Z,0.70
2019-05-14T12:59:09.978Z,0.90
2019-05-14T13:01:41.712Z,0.60
2019-05-14T13:04:11.118Z,0.93
2019-05-14T13:06:41.616Z,0.97
2019-05-14T13:09:12.119Z,0.73
2019-05-14T13:11:41.782Z,0.87
2019-05-14T13:14:12.199Z,0.80
2019-05-14T13:16:41.609Z,0.90
2019-05-14T13:19:11.926Z,0.80
2019-05-14T13:21:42.281Z,0.90
2019-05-14T13:24:12.777Z,0.90
2019-05-14T13:26:43.191Z,1.07
2019-05-14T13:29:12.600Z,0.90
2019-05-14T13:31:43.091Z,1.10
2019-05-14T13:34:12.571Z,0.70
2019-05-14T13:36:44.846Z,0.77
2019-05-14T13:39:13.645Z,0.60
2019-05-14T13:41:44.050Z,0.70
2019-05-14T13:44:21.171Z,0.90
2019-05-14T13:46:48.669Z,1.00
2019-05-14T13:49:19.058Z,1.00
2019-05-14T13:51:49.746Z,0.60
2019-05-14T13:54:21.626Z,0.83
2019-05-14T13:56:52.033Z,1.00
2019-05-14T13:59:23.991Z,0.90
2019-05-14T14:01:54.911Z,0.80
2019-05-14T14:04:24.635Z,1.00
2019-05-14T14:06:54.162Z,0.70
2019-05-14T14:09:24.359Z,0.97
2019-05-14T14:11:54.051Z,0.70
2019-05-14T14:14:24.447Z,0.90
2019-05-14T14:16:54.844Z,0.97
2019-05-14T14:19:24.148Z,0.90
2019-05-14T14:21:54.575Z,0.90
2019-05-14T14:24:24.201Z,0.90
2019-05-14T14:26:54.588Z,1.00
2019-05-14T14:29:23.964Z,1.00
2019-05-14T14:31:52.466Z,0.90
2019-05-14T14:34:21.904Z,0.80
2019-05-14T14:36:54.936Z,0.80
2019-05-14T14:39:22.752Z,0.80
2019-05-14T14:41:54.768Z,0.90
2019-05-14T14:44:29.117Z,0.80
2019-05-14T14:46:59.617Z,1.27
2019-05-14T14:49:30.021Z,0.77
2019-05-14T14:52:00.512Z,0.80
2019-05-14T14:54:31.501Z,1.20
2019-05-14T14:57:03.632Z,0.93
2019-05-14T14:59:33.006Z,0.70
2019-05-14T15:02:03.827Z,0.90
2019-05-14T15:04:34.871Z,1.10
2019-05-14T15:07:03.375Z,0.77
2019-05-14T15:09:34.098Z,1.07
2019-05-14T15:12:04.603Z,0.90
2019-05-14T15:14:33.970Z,0.80
2019-05-14T15:17:03.368Z,0.97
2019-05-14T15:19:33.939Z,0.70
2019-05-14T15:22:03.402Z,0.90
2019-05-14T15:24:33.973Z,1.10
2019-05-14T15:27:08.788Z,0.80
2019-05-14T15:29:39.025Z,0.80
2019-05-14T15:32:09.950Z,0.90
2019-05-14T15:34:39.353Z,0.80
2019-05-14T15:37:11.687Z,0.80
2019-05-14T15:39:42.102Z,0.73
2019-05-14T15:42:13.997Z,0.90
2019-05-14T15:44:51.979Z,0.60
2019-05-14T15:47:18.957Z,0.87
2019-05-14T15:49:49.035Z,0.80
2019-05-14T15:52:19.408Z,0.70
2019-05-14T15:54:50.642Z,0.70
2019-05-14T15:57:20.528Z,0.90
2019-05-14T15:59:53.904Z,1.00
2019-05-14T16:02:24.414Z,0.80
2019-05-14T16:04:55.757Z,1.00
2019-05-14T16:07:26.127Z,1.00
2019-05-14T16:09:56.567Z,1.00
2019-05-14T16:12:32.359Z,0.90
2019-05-14T16:15:01.353Z,0.80
2019-05-14T16:17:45.371Z,0.97
2019-05-14T16:20:09.342Z,1.00
2019-05-14T16:22:39.838Z,0.93
2019-05-14T16:25:13.553Z,0.70
2019-05-14T16:27:44.350Z,1.13
2019-05-14T16:30:14.959Z,2.00
2019-05-14T16:32:44.422Z,1.97
2019-05-14T16:35:15.152Z,1.10
2019-05-14T16:37:48.469Z,1.30
2019-05-14T16:40:19.262Z,0.83
2019-05-14T16:42:48.879Z,0.80
2019-05-14T16:45:18.696Z,0.90
2019-05-14T16:47:51.141Z,0.70
2019-05-14T16:50:23.884Z,1.00
2019-05-14T16:52:55.815Z,0.80
2019-05-14T16:55:30.423Z,0.77
2019-05-14T16:58:01.325Z,0.60
2019-05-14T17:00:34.678Z,0.80
2019-05-14T17:03:08.340Z,0.80
2019-05-14T17:05:39.374Z,1.00
2019-05-14T17:08:10.043Z,1.10
2019-05-14T17:10:42.026Z,1.60
2019-05-14T17:13:12.851Z,1.43
2019-05-14T17:15:50.457Z,1.97
2019-05-14T17:18:21.138Z,1.93
2019-05-14T17:20:50.480Z,1.33
2019-05-14T17:23:22.897Z,1.50
2019-05-14T17:25:53.968Z,1.40
2019-05-14T17:28:24.473Z,1.30
2019-05-14T17:30:55.258Z,1.67
